Time;durP1;ratioP1;P1;durP2;ratioP2;P2;SDS_P1;SDS_P2;PMS_P1;PMS_P2;Temp;Humidity;BMP_temperature;BMP_pressure;BME280_temperature;BME280_humidity;BME280_pressure;Samples;Min_cycle;Max_cycle;Signal;HPM_P1;HPM_P2
2022/06/25 00:00:27;;;;;;;16.60;13.07;;;20.30;99.90;;;;;;5055475;28;20114;-72
2022/06/25 00:02:53;;;;;;;15.40;13.80;;;20.20;99.90;;;;;;5055284;28;20060;-72
2022/06/25 00:05:27;;;;;;;15.40;13.20;;;20.20;99.90;;;;;;5055198;28;20049;-72
2022/06/25 00:07:56;;;;;;;18.10;16.05;;;20.20;99.90;;;;;;5056610;28;20135;-72
2022/06/25 00:10:23;;;;;;;19.92;17.23;;;20.20;99.90;;;;;;5073411;28;20415;-72
2022/06/25 00:12:49;;;;;;;22.05;17.10;;;20.20;99.90;;;;;;5071854;28;20044;-73
2022/06/25 00:15:15;;;;;;;19.13;17.13;;;20.20;99.90;;;;;;5038679;28;20461;-74
2022/06/25 00:17:41;;;;;;;19.63;16.42;;;20.30;99.90;;;;;;5055749;28;20094;-72
2022/06/25 00:20:08;;;;;;;20.65;17.00;;;20.30;99.90;;;;;;5076396;28;20048;-73
2022/06/25 00:22:33;;;;;;;18.83;16.85;;;20.30;99.90;;;;;;5075818;28;20055;-72
2022/06/25 00:25:00;;;;;;;19.05;16.55;;;20.20;99.90;;;;;;5075728;28;20048;-72
2022/06/25 00:27:25;;;;;;;20.95;17.60;;;20.30;99.90;;;;;;5059269;28;20051;-72
2022/06/25 00:29:51;;;;;;;19.27;16.60;;;20.30;99.90;;;;;;5075639;28;20395;-73
2022/06/25 00:32:17;;;;;;;21.83;18.95;;;20.30;99.90;;;;;;5076042;28;20040;-73
2022/06/25 00:34:43;;;;;;;19.65;17.55;;;20.30;99.90;;;;;;5058115;28;20048;-72
2022/06/25 00:37:09;;;;;;;25.67;20.45;;;20.30;99.90;;;;;;5075789;28;20049;-72
2022/06/25 00:39:36;;;;;;;21.13;18.77;;;20.20;99.90;;;;;;5058659;28;20041;-72
2022/06/25 00:42:08;;;;;;;20.83;18.33;;;20.20;99.90;;;;;;5058611;28;20052;-73
2022/06/25 00:44:33;;;;;;;20.55;17.65;;;20.10;99.90;;;;;;5075572;28;20498;-72
2022/06/25 00:46:59;;;;;;;25.25;18.63;;;20.10;99.90;;;;;;5075369;28;20158;-72
2022/06/25 00:49:25;;;;;;;22.15;18.40;;;20.10;99.90;;;;;;5075450;28;20127;-72
2022/06/25 00:51:51;;;;;;;20.17;17.05;;;20.00;99.90;;;;;;5058761;28;20048;-72
2022/06/25 00:54:19;;;;;;;23.83;18.75;;;20.00;99.90;;;;;;5074782;28;20049;-72
2022/06/25 00:56:49;;;;;;;23.27;17.65;;;20.00;99.90;;;;;;5075277;28;20391;-72
2022/06/25 00:59:27;;;;;;;21.05;18.10;;;20.00;99.90;;;;;;5075101;28;20458;-73
2022/06/25 01:01:53;;;;;;;21.38;17.92;;;20.00;99.90;;;;;;5075461;28;20048;-72
2022/06/25 01:04:20;;;;;;;20.63;16.38;;;19.90;99.90;;;;;;5074774;28;20064;-72
2022/06/25 01:06:46;;;;;;;19.88;17.75;;;19.90;99.90;;;;;;5075028;28;20045;-72
2022/06/25 01:09:12;;;;;;;22.75;19.48;;;19.90;99.90;;;;;;5058104;28;20567;-72
2022/06/25 01:11:37;;;;;;;18.90;16.90;;;19.90;99.90;;;;;;5074825;28;20174;-72
2022/06/25 01:14:10;;;;;;;23.48;19.77;;;19.90;99.90;;;;;;5041297;28;20040;-72
2022/06/25 01:16:36;;;;;;;19.85;16.33;;;19.90;99.90;;;;;;5074935;28;20553;-73
2022/06/25 01:19:11;;;;;;;22.15;16.98;;;19.80;99.90;;;;;;5058107;28;20044;-72
2022/06/25 01:21:38;;;;;;;19.20;16.60;;;19.90;99.90;;;;;;5074994;28;20044;-72
2022/06/25 01:24:05;;;;;;;17.02;15.32;;;20.00;99.90;;;;;;5074492;28;20044;-74
2022/06/25 01:26:39;;;;;;;17.95;15.50;;;19.90;99.90;;;;;;5074729;28;20056;-72
2022/06/25 01:29:05;;;;;;;17.13;14.27;;;19.80;99.90;;;;;;5075108;28;20043;-72
2022/06/25 01:31:31;;;;;;;19.48;16.42;;;19.90;99.90;;;;;;5057185;28;20048;-72
2022/06/25 01:33:58;;;;;;;18.40;15.07;;;19.80;99.90;;;;;;5073652;28;20434;-73
2022/06/25 01:36:24;;;;;;;16.15;13.88;;;19.80;99.90;;;;;;5057579;28;20074;-73
2022/06/25 01:38:50;;;;;;;20.95;15.55;;;19.80;99.90;;;;;;5073870;28;20492;-73
2022/06/25 01:41:15;;;;;;;16.10;14.35;;;19.90;99.90;;;;;;5057845;28;20055;-72
2022/06/25 01:43:41;;;;;;;15.30;13.60;;;19.90;99.90;;;;;;5057848;28;20045;-72
2022/06/25 01:46:08;;;;;;;17.88;14.55;;;19.90;99.90;;;;;;5074501;28;20048;-72
2022/06/25 01:48:35;;;;;;;16.02;13.93;;;19.70;99.90;;;;;;5074451;28;20045;-72
2022/06/25 01:51:01;;;;;;;15.50;13.10;;;19.70;99.90;;;;;;5074134;28;20045;-72
2022/06/25 01:53:27;;;;;;;14.52;13.02;;;19.70;99.90;;;;;;5057393;28;20048;-72
2022/06/25 01:55:53;;;;;;;15.32;13.73;;;19.70;99.90;;;;;;5057541;28;20479;-72
2022/06/25 01:58:19;;;;;;;18.98;14.35;;;19.60;99.90;;;;;;5057475;28;20036;-72
2022/06/25 02:00:45;;;;;;;16.88;13.75;;;19.60;99.90;;;;;;5074095;28;20396;-72
2022/06/25 02:03:11;;;;;;;17.48;14.38;;;19.60;99.90;;;;;;5057348;28;20131;-72
2022/06/25 02:08:23;;;;;;;21.25;17.83;;;19.60;99.90;;;;;;5074317;28;20143;-72
2022/06/25 02:10:49;;;;;;;14.05;12.65;;;19.60;99.90;;;;;;5073794;28;20052;-72
2022/06/25 02:13:16;;;;;;;14.45;12.63;;;19.60;99.90;;;;;;5073469;28;20087;-73
2022/06/25 02:15:41;;;;;;;13.98;12.10;;;19.50;99.90;;;;;;5057267;28;20052;-72
2022/06/25 02:18:08;;;;;;;15.85;13.43;;;19.50;99.90;;;;;;5073668;28;20094;-73
2022/06/25 02:20:34;;;;;;;14.10;12.57;;;19.50;99.90;;;;;;5073385;28;20045;-73
2022/06/25 02:23:00;;;;;;;16.52;14.35;;;19.50;99.90;;;;;;5073584;28;20051;-72
2022/06/25 02:25:26;;;;;;;15.52;12.45;;;19.50;99.90;;;;;;5073674;28;20080;-72
2022/06/25 02:27:51;;;;;;;18.52;13.48;;;19.40;99.90;;;;;;5073247;28;20495;-73
2022/06/25 02:30:17;;;;;;;14.05;12.32;;;19.40;99.90;;;;;;5073617;28;20055;-72
2022/06/25 02:32:43;;;;;;;14.68;12.70;;;19.50;99.90;;;;;;5073099;28;20059;-72
2022/06/25 02:35:09;;;;;;;15.20;12.80;;;19.40;99.90;;;;;;5072411;28;20071;-73
2022/06/25 02:37:34;;;;;;;15.27;11.93;;;19.40;99.90;;;;;;5056725;28;20123;-72
2022/06/25 02:40:00;;;;;;;17.17;12.85;;;19.40;99.90;;;;;;5073293;28;20066;-72
2022/06/25 02:42:35;;;;;;;13.38;11.95;;;19.30;99.90;;;;;;5072384;28;20198;-73
2022/06/25 02:45:02;;;;;;;13.52;11.30;;;19.30;99.90;;;;;;5056494;28;20131;-72
2022/06/25 02:47:28;;;;;;;14.88;12.93;;;19.30;99.90;;;;;;5056279;28;20053;-73
2022/06/25 02:49:53;;;;;;;13.45;12.00;;;19.30;99.90;;;;;;5055917;28;20051;-72
2022/06/25 02:52:19;;;;;;;15.20;13.02;;;19.30;99.90;;;;;;5056371;28;20044;-73
2022/06/25 02:54:44;;;;;;;14.57;12.20;;;19.30;99.90;;;;;;5073156;28;20109;-72
2022/06/25 02:59:54;;;;;;;14.75;13.18;;;19.30;99.90;;;;;;5072931;28;20048;-73
2022/06/25 03:02:20;;;;;;;13.75;11.77;;;19.30;99.90;;;;;;5072741;28;20368;-72
2022/06/25 03:04:45;;;;;;;12.90;11.45;;;19.30;99.90;;;;;;5072737;28;20428;-72
2022/06/25 03:07:11;;;;;;;13.88;11.43;;;19.30;99.90;;;;;;5072768;28;20368;-72
2022/06/25 03:09:37;;;;;;;16.98;14.27;;;19.40;99.90;;;;;;5072754;28;20468;-72
2022/06/25 03:12:03;;;;;;;14.15;11.88;;;19.30;99.90;;;;;;5055809;28;20468;-73
2022/06/25 03:14:29;;;;;;;13.02;11.68;;;19.30;99.90;;;;;;5072453;28;20416;-73
2022/06/25 03:16:54;;;;;;;13.43;12.00;;;19.40;99.90;;;;;;5072506;28;20125;-73
2022/06/25 03:19:20;;;;;;;14.45;11.77;;;19.40;99.90;;;;;;5072728;28;20036;-72
2022/06/25 03:21:46;;;;;;;14.15;10.68;;;19.40;99.90;;;;;;5072957;28;20040;-72
2022/06/25 03:24:12;;;;;;;13.75;10.80;;;19.30;99.90;;;;;;5072468;28;20052;-72
2022/06/25 03:26:38;;;;;;;12.02;10.82;;;19.20;99.90;;;;;;5072761;28;20052;-72
2022/06/25 03:29:04;;;;;;;15.98;10.73;;;19.20;99.90;;;;;;5072678;28;20045;-72
2022/06/25 03:31:30;;;;;;;12.35;10.98;;;19.30;99.90;;;;;;5072474;28;20103;-72
2022/06/25 03:33:56;;;;;;;16.10;11.63;;;19.30;99.90;;;;;;5055244;28;20112;-73
2022/06/25 03:36:21;;;;;;;16.42;10.95;;;19.30;99.90;;;;;;5072311;28;20049;-72
2022/06/25 03:38:47;;;;;;;12.95;11.65;;;19.20;99.90;;;;;;5039331;28;20079;-72
2022/06/25 03:43:57;;;;;;;11.73;10.50;;;19.20;99.90;;;;;;5072548;28;20458;-72
2022/06/25 03:46:23;;;;;;;10.90;9.70;;;19.10;99.90;;;;;;5055646;28;20127;-72
2022/06/25 03:48:48;;;;;;;13.07;10.25;;;19.20;99.90;;;;;;5072292;28;20088;-72
2022/06/25 03:51:14;;;;;;;12.57;10.02;;;19.20;99.90;;;;;;5055916;28;20087;-72
2022/06/25 03:53:40;;;;;;;14.38;11.82;;;19.20;99.90;;;;;;5040921;28;20433;-72
2022/06/25 03:56:06;;;;;;;16.38;13.35;;;19.20;99.90;;;;;;5043152;28;20044;-72
2022/06/25 03:58:32;;;;;;;13.32;10.25;;;19.10;99.90;;;;;;5076064;28;20472;-72
2022/06/25 04:00:58;;;;;;;13.73;11.77;;;19.10;99.90;;;;;;5076882;28;20076;-72
2022/06/25 04:03:23;;;;;;;15.13;13.13;;;19.10;99.90;;;;;;5059662;28;20083;-72
2022/06/25 04:05:49;;;;;;;16.50;13.45;;;19.10;99.90;;;;;;5075932;28;20392;-72
2022/06/25 04:08:15;;;;;;;15.45;10.65;;;19.10;99.90;;;;;;5075988;28;20048;-72
2022/06/25 04:10:42;;;;;;;16.40;11.32;;;19.10;99.90;;;;;;5076228;28;20044;-73
2022/06/25 04:13:08;;;;;;;13.45;10.48;;;19.20;99.90;;;;;;5076044;28;20051;-72
2022/06/25 04:15:35;;;;;;;12.52;11.23;;;19.30;99.90;;;;;;5059556;28;20498;-72
2022/06/25 04:18:01;;;;;;;16.20;10.77;;;19.30;99.90;;;;;;5059385;28;20079;-72
2022/06/25 04:20:27;;;;;;;16.73;14.68;;;19.20;99.90;;;;;;5076158;28;20051;-72
2022/06/25 04:22:53;;;;;;;14.00;12.50;;;19.10;99.90;;;;;;5076012;28;20040;-72
2022/06/25 04:25:19;;;;;;;13.27;11.85;;;19.20;99.90;;;;;;5075879;28;20506;-72
2022/06/25 04:30:29;;;;;;;12.20;10.93;;;19.30;99.90;;;;;;5075811;28;20055;-72
2022/06/25 04:32:54;;;;;;;14.73;11.80;;;19.50;99.90;;;;;;5075305;28;20048;-73
2022/06/25 04:35:20;;;;;;;17.98;13.55;;;19.50;99.90;;;;;;5058869;28;20080;-72
2022/06/25 04:37:46;;;;;;;15.13;13.15;;;19.60;99.90;;;;;;5059002;28;20510;-72
2022/06/25 04:40:12;;;;;;;14.65;12.80;;;19.60;99.90;;;;;;5075595;28;20052;-73
2022/06/25 04:42:38;;;;;;;14.73;11.57;;;19.60;99.90;;;;;;5070257;28;20525;-73
2022/06/25 04:45:04;;;;;;;16.40;12.68;;;19.70;99.90;;;;;;5023029;28;20076;-72
2022/06/25 04:47:35;;;;;;;12.90;11.70;;;19.80;99.90;;;;;;5072034;28;20045;-72
2022/06/25 04:50:01;;;;;;;16.52;13.05;;;19.90;99.90;;;;;;5039004;28;20044;-72
2022/06/25 04:52:27;;;;;;;16.00;11.65;;;19.80;99.90;;;;;;5038515;28;20045;-73
2022/06/25 04:54:52;;;;;;;12.88;11.13;;;19.80;99.90;;;;;;5055205;28;20052;-72
2022/06/25 04:57:18;;;;;;;14.70;10.77;;;19.90;99.90;;;;;;5055193;28;20049;-72
2022/06/25 04:59:43;;;;;;;14.77;11.13;;;19.90;99.90;;;;;;5038647;28;20090;-72
2022/06/25 05:02:09;;;;;;;12.65;10.63;;;19.90;99.90;;;;;;5055211;28;20041;-73
2022/06/25 05:04:35;;;;;;;16.02;10.55;;;19.80;99.90;;;;;;5053418;28;20041;-72
2022/06/25 05:07:01;;;;;;;12.27;10.98;;;19.80;99.90;;;;;;5038674;28;20434;-72
2022/06/25 05:09:27;;;;;;;13.30;10.95;;;19.90;99.90;;;;;;5038379;28;20045;-73
2022/06/25 05:11:53;;;;;;;14.25;11.38;;;19.90;99.90;;;;;;5055113;28;20392;-73
2022/06/25 05:14:18;;;;;;;14.52;11.07;;;20.00;99.90;;;;;;5054652;28;20056;-72
2022/06/25 05:16:47;;;;;;;13.23;9.70;;;20.10;99.90;;;;;;5054814;28;20045;-73
2022/06/25 05:19:13;;;;;;;11.70;10.52;;;20.30;99.90;;;;;;5054796;28;20049;-72
2022/06/25 05:21:39;;;;;;;12.73;9.27;;;20.40;99.90;;;;;;5054729;28;20153;-73
2022/06/25 05:24:07;;;;;;;14.50;9.68;;;20.40;99.90;;;;;;5054837;28;20056;-73
2022/06/25 05:26:33;;;;;;;13.18;10.32;;;20.60;99.90;;;;;;5054500;28;20049;-72
2022/06/25 05:28:59;;;;;;;13.55;9.18;;;20.70;99.90;;;;;;5038021;28;20057;-72
2022/06/25 05:31:24;;;;;;;10.52;9.00;;;20.60;99.90;;;;;;5038153;28;20041;-73
2022/06/25 05:33:50;;;;;;;13.75;9.90;;;20.60;99.90;;;;;;5037148;28;20057;-76
2022/06/25 05:36:17;;;;;;;10.52;8.40;;;20.70;99.90;;;;;;5054608;28;20500;-73
2022/06/25 05:38:42;;;;;;;9.95;8.38;;;20.70;99.90;;;;;;5037630;28;20550;-73
2022/06/25 05:41:09;;;;;;;10.55;7.43;;;20.80;99.90;;;;;;5054550;28;20049;-73
2022/06/25 05:43:38;;;;;;;10.88;8.00;;;20.90;99.90;;;;;;5054576;28;20052;-73
2022/06/25 05:46:05;;;;;;;9.25;8.25;;;21.00;99.90;;;;;;5054507;28;20045;-73
2022/06/25 05:48:30;;;;;;;10.07;8.55;;;21.00;99.90;;;;;;5021012;28;20049;-72
2022/06/25 05:50:57;;;;;;;9.90;8.63;;;21.00;99.90;;;;;;5054084;28;20048;-74
2022/06/25 05:53:23;;;;;;;14.27;8.30;;;21.00;99.90;;;;;;5037221;28;20052;-73
2022/06/25 05:55:49;;;;;;;11.52;8.18;;;21.10;99.90;;;;;;5037652;28;20056;-73
2022/06/25 05:58:15;;;;;;;14.32;7.90;;;21.00;99.90;;;;;;5054199;28;20049;-72
2022/06/25 06:00:41;;;;;;;14.68;8.73;;;21.00;99.90;;;;;;5054094;28;20041;-72
2022/06/25 06:03:06;;;;;;;10.48;8.30;;;21.10;99.90;;;;;;5054170;28;20052;-73
2022/06/25 06:05:32;;;;;;;9.13;7.75;;;21.20;99.90;;;;;;5020091;28;20048;-74
2022/06/25 06:07:58;;;;;;;10.98;7.32;;;21.30;99.90;;;;;;5053628;28;20045;-73
2022/06/25 06:10:24;;;;;;;10.25;7.80;;;21.50;99.90;;;;;;5054008;28;20094;-73
2022/06/25 06:12:49;;;;;;;11.35;7.70;;;21.70;99.90;;;;;;5053730;28;20427;-73
2022/06/25 06:15:15;;;;;;;9.65;7.68;;;21.70;99.90;;;;;;5037306;28;20111;-73
2022/06/25 06:17:41;;;;;;;8.43;7.10;;;21.70;99.90;;;;;;5053369;28;20415;-73
2022/06/25 06:20:07;;;;;;;9.30;7.13;;;21.70;99.90;;;;;;5053755;28;20041;-73
2022/06/25 06:22:33;;;;;;;13.05;7.43;;;21.70;99.90;;;;;;5053373;28;20060;-73
2022/06/25 06:24:59;;;;;;;10.95;8.43;;;21.70;99.90;;;;;;5057532;28;20450;-73
2022/06/25 06:27:24;;;;;;;8.60;6.93;;;21.80;99.90;;;;;;5073381;28;20049;-73
2022/06/25 06:29:50;;;;;;;11.10;8.07;;;21.70;99.90;;;;;;5073522;28;20479;-73
2022/06/25 06:32:16;;;;;;;9.52;7.35;;;21.70;99.90;;;;;;5073337;28;20047;-73
2022/06/25 06:34:42;;;;;;;9.25;7.93;;;21.60;99.90;;;;;;5055638;28;20088;-73
2022/06/25 06:37:08;;;;;;;12.00;8.10;;;21.50;99.90;;;;;;5057286;28;20036;-73
2022/06/25 06:39:33;;;;;;;10.43;7.50;;;21.70;99.90;;;;;;5073536;28;20077;-73
2022/06/25 06:41:59;;;;;;;12.70;8.00;;;21.70;99.90;;;;;;5056658;28;20396;-73
2022/06/25 06:44:25;;;;;;;11.20;7.55;;;21.70;99.90;;;;;;5056467;28;20097;-73
2022/06/25 06:46:51;;;;;;;9.60;7.35;;;21.50;99.90;;;;;;5056462;28;20048;-73
2022/06/25 06:49:16;;;;;;;10.60;7.47;;;21.60;99.90;;;;;;5047395;28;20051;-73
2022/06/25 06:51:42;;;;;;;9.93;8.05;;;21.50;99.90;;;;;;5039500;28;20552;-73
2022/06/25 06:54:08;;;;;;;11.55;7.55;;;21.60;99.90;;;;;;5046255;28;20127;-73
2022/06/25 06:56:33;;;;;;;9.25;7.00;;;21.70;99.90;;;;;;5056132;28;20049;-73
2022/06/25 06:58:59;;;;;;;8.68;7.35;;;21.70;99.90;;;;;;5056431;28;20051;-73
2022/06/25 07:01:25;;;;;;;10.70;6.88;;;21.80;99.90;;;;;;5072743;28;20044;-73
2022/06/25 07:03:51;;;;;;;10.45;7.82;;;21.80;99.90;;;;;;5057255;28;20114;-73
2022/06/25 07:06:17;;;;;;;12.88;7.68;;;21.80;99.90;;;;;;5056915;28;20032;-73
2022/06/25 07:08:43;;;;;;;8.60;6.57;;;22.00;99.90;;;;;;5071492;28;20526;-73
2022/06/25 07:13:54;;;;;;;10.68;7.03;;;22.20;99.90;;;;;;5072653;28;20115;-73
2022/06/25 07:16:20;;;;;;;9.25;6.30;;;22.00;99.90;;;;;;5072765;28;20052;-73
2022/06/25 07:18:46;;;;;;;8.55;6.45;;;22.10;99.90;;;;;;5054517;28;20064;-73
2022/06/25 07:21:11;;;;;;;11.30;6.20;;;22.10;99.90;;;;;;5080203;28;20078;-73
2022/06/25 07:23:37;;;;;;;10.90;5.65;;;22.10;99.90;;;;;;5072529;28;20082;-78
2022/06/25 07:26:03;;;;;;;9.75;5.35;;;22.10;99.90;;;;;;5070341;28;20048;-79
2022/06/25 07:28:29;;;;;;;9.18;5.03;;;22.20;99.90;;;;;;5071445;28;20048;-76
2022/06/25 07:30:54;;;;;;;6.82;4.63;;;22.20;99.90;;;;;;5072448;28;20044;-74
2022/06/25 07:33:20;;;;;;;7.97;4.88;;;22.30;99.90;;;;;;5055228;28;20460;-73
2022/06/25 07:35:46;;;;;;;9.10;4.78;;;22.60;99.90;;;;;;5072037;28;20056;-74
2022/06/25 07:38:11;;;;;;;9.02;5.03;;;22.70;99.90;;;;;;5072473;28;20388;-74
2022/06/25 07:40:37;;;;;;;8.82;4.38;;;22.60;99.90;;;;;;5072182;28;20040;-73
2022/06/25 07:43:03;;;;;;;8.93;4.50;;;22.70;99.90;;;;;;5055885;28;20102;-75
2022/06/25 07:45:29;;;;;;;7.35;4.10;;;22.80;99.90;;;;;;5053342;28;20049;-74
2022/06/25 07:47:54;;;;;;;6.00;3.40;;;22.70;99.90;;;;;;5053302;28;20045;-75
2022/06/25 07:53:04;;;;;;;5.50;2.72;;;22.90;99.90;;;;;;5052685;28;20088;-71
2022/06/25 07:55:30;;;;;;;4.03;3.00;;;23.00;99.90;;;;;;5064324;28;20064;-80
2022/06/25 07:57:56;;;;;;;6.47;2.67;;;23.30;99.90;;;;;;5073702;28;20048;-76
2022/06/25 08:00:22;;;;;;;5.32;2.47;;;23.40;99.90;;;;;;5070563;28;20067;-79
2022/06/25 08:02:48;;;;;;;4.90;2.45;;;23.50;99.90;;;;;;5059220;28;20083;-78
2022/06/25 08:05:14;;;;;;;8.10;2.65;;;23.30;99.90;;;;;;5053302;28;20067;-77
2022/06/25 08:07:40;;;;;;;5.03;2.58;;;23.30;99.90;;;;;;5059093;28;20484;-78
2022/06/25 08:10:07;;;;;;;4.13;2.40;;;23.30;99.90;;;;;;5035073;28;20052;-78
2022/06/25 08:12:32;;;;;;;5.20;2.40;;;23.40;99.90;;;;;;5051569;28;20049;-78
2022/06/25 08:14:59;;;;;;;5.57;2.45;;;23.40;99.90;;;;;;5075837;28;20044;-79
2022/06/25 08:17:25;;;;;;;5.10;2.00;;;23.50;99.90;;;;;;5060167;28;20041;-78
2022/06/25 08:19:50;;;;;;;4.70;2.10;;;23.60;99.90;;;;;;5071400;28;20053;-78
2022/06/25 08:22:16;;;;;;;7.45;2.10;;;23.60;99.90;;;;;;5051701;28;20055;-78
2022/06/25 08:24:42;;;;;;;4.15;2.13;;;23.70;99.90;;;;;;5051945;28;20084;-77
2022/06/25 08:27:07;;;;;;;3.60;1.98;;;23.80;99.90;;;;;;5057677;28;20048;-78
2022/06/25 08:29:33;;;;;;;4.72;2.00;;;23.90;99.90;;;;;;5060893;28;20040;-77
2022/06/25 08:32:04;;;;;;;2.88;1.63;;;23.70;99.90;;;;;;5063761;28;20055;-77
2022/06/25 08:34:30;;;;;;;6.43;2.10;;;23.60;99.90;;;;;;5050972;28;20447;-77
2022/06/25 08:36:55;;;;;;;4.65;1.60;;;23.70;99.90;;;;;;5051867;28;20041;-77
2022/06/25 08:39:21;;;;;;;5.55;2.00;;;23.80;99.90;;;;;;5053377;28;20491;-77
2022/06/25 08:41:47;;;;;;;3.95;1.60;;;23.90;99.90;;;;;;5059810;28;20113;-77
2022/06/25 08:44:12;;;;;;;3.15;1.60;;;24.00;99.90;;;;;;5075301;28;20052;-77
2022/06/25 08:46:38;;;;;;;6.60;1.90;;;24.10;99.90;;;;;;5075583;28;20376;-77
2022/06/25 08:49:04;;;;;;;4.95;1.98;;;24.30;99.90;;;;;;5076382;28;20052;-77
2022/06/25 08:51:32;;;;;;;4.50;1.90;;;24.40;99.90;;;;;;5075813;28;20119;-77
2022/06/25 08:53:58;;;;;;;5.25;2.10;;;24.30;99.90;;;;;;5056325;28;20056;-77
2022/06/25 08:56:24;;;;;;;4.63;2.10;;;24.10;99.90;;;;;;5059439;28;20040;-77
2022/06/25 08:58:50;;;;;;;5.20;2.30;;;24.20;99.90;;;;;;5076238;28;20365;-77
2022/06/25 09:01:15;;;;;;;7.07;2.35;;;24.20;99.90;;;;;;5076380;28;20112;-77
2022/06/25 09:03:42;;;;;;;5.65;2.13;;;24.00;99.90;;;;;;5058297;28;20048;-78
2022/06/25 09:06:20;;;;;;;5.40;2.25;;;24.10;99.90;;;;;;5074889;28;20040;-84
2022/06/25 09:09:09;;;;;;;5.05;2.25;;;24.10;99.90;;;;;;5056018;28;20051;-76
2022/06/25 09:11:48;;;;;;;6.05;2.30;;;24.40;99.90;;;;;;5055137;28;20139;-77
2022/06/25 09:14:28;;;;;;;6.47;2.35;;;24.50;99.90;;;;;;5059248;28;20110;-77
2022/06/25 09:17:06;;;;;;;4.93;2.40;;;24.80;99.90;;;;;;5074540;28;20036;-82
2022/06/25 09:19:40;;;;;;;4.63;2.22;;;25.00;99.90;;;;;;5073250;28;20048;-78
2022/06/25 09:22:17;;;;;;;4.57;1.98;;;24.80;99.90;;;;;;5078940;28;20493;-77
2022/06/25 09:24:48;;;;;;;6.90;2.03;;;24.80;99.90;;;;;;5070981;28;20045;-77
2022/06/25 09:27:39;;;;;;;6.65;2.22;;;24.50;99.90;;;;;;5074805;28;20404;-76
2022/06/25 09:30:16;;;;;;;5.75;1.98;;;24.60;99.90;;;;;;5075485;28;20529;-77
2022/06/25 09:32:43;;;;;;;3.35;1.50;;;24.60;99.90;;;;;;5072540;28;20044;-83
2022/06/25 09:35:10;;;;;;;3.83;1.10;;;24.70;99.90;;;;;;5064553;28;20056;-75
2022/06/25 09:37:36;;;;;;;5.63;1.52;;;24.50;99.90;;;;;;5074481;28;20048;-77
2022/06/25 09:40:04;;;;;;;4.53;1.70;;;24.50;99.90;;;;;;5075661;28;20044;-75
2022/06/25 09:42:37;;;;;;;5.45;1.90;;;24.50;99.90;;;;;;5074416;28;20052;-79
2022/06/25 09:45:11;;;;;;;6.57;1.60;;;24.40;99.90;;;;;;5074619;28;20052;-75
2022/06/25 09:47:42;;;;;;;7.90;1.48;;;24.60;99.90;;;;;;5075319;28;20430;-79
2022/06/25 09:50:13;;;;;;;4.32;1.27;;;25.00;99.90;;;;;;5073981;28;20399;-78
2022/06/25 09:53:01;;;;;;;1.33;1.20;;;25.00;99.90;;;;;;5074263;28;20052;-79
2022/06/25 09:55:37;;;;;;;3.92;1.30;;;25.30;99.90;;;;;;5074458;28;20145;-77
2022/06/25 09:58:03;;;;;;;2.63;1.20;;;25.70;99.90;;;;;;5075430;28;20045;-73
2022/06/25 10:00:30;;;;;;;2.70;1.52;;;25.90;99.90;;;;;;5075159;28;20045;-77
2022/06/25 10:02:58;;;;;;;5.20;1.00;;;25.60;99.90;;;;;;5074269;28;20483;-76
2022/06/25 10:05:28;;;;;;;1.85;0.90;;;25.50;99.90;;;;;;5074421;28;20052;-77
2022/06/25 10:08:01;;;;;;;2.47;1.40;;;25.60;99.90;;;;;;5056165;28;20053;-74
2022/06/25 10:10:44;;;;;;;3.45;1.73;;;25.80;99.90;;;;;;5070241;28;20091;-77
2022/06/25 10:13:10;;;;;;;2.97;1.20;;;25.50;99.90;;;;;;5070731;28;20088;-75
2022/06/25 10:15:37;;;;;;;4.82;1.25;;;25.50;99.90;;;;;;5070705;28;20056;-75
2022/06/25 10:18:11;;;;;;;3.63;1.45;;;25.40;99.90;;;;;;5053551;28;20068;-75
2022/06/25 10:20:39;;;;;;;2.42;1.48;;;25.30;99.90;;;;;;5070728;28;20067;-77
2022/06/25 10:23:08;;;;;;;5.50;1.13;;;25.20;99.90;;;;;;5053447;28;20139;-74
2022/06/25 10:25:35;;;;;;;4.30;1.52;;;25.10;99.90;;;;;;5053726;28;20068;-77
2022/06/25 10:28:15;;;;;;;2.45;1.17;;;25.00;99.90;;;;;;5054824;28;20152;-74
2022/06/25 10:30:50;;;;;;;2.97;1.00;;;25.10;99.90;;;;;;5054254;28;20049;-76
2022/06/25 10:33:18;;;;;;;3.85;1.30;;;25.10;99.90;;;;;;5054193;28;20049;-77
2022/06/25 10:35:44;;;;;;;4.03;1.10;;;25.20;99.90;;;;;;5053323;28;20076;-78
2022/06/25 10:38:16;;;;;;;5.95;1.08;;;25.10;99.90;;;;;;5053511;28;20535;-77
2022/06/25 10:42:58;;;;;;;2.22;0.82;;;25.20;99.90;;;;;;5054187;28;20048;-78
2022/06/25 10:43:47;;;;;;;1.48;0.98;;;25.60;99.90;;;;;;5069625;28;20159;-85
2022/06/25 10:46:28;;;;;;;6.05;1.15;;;26.00;99.90;;;;;;5070507;28;20391;-78
2022/06/25 10:49:05;;;;;;;2.60;0.93;;;26.20;99.90;;;;;;5070001;28;20392;-76
2022/06/25 10:51:38;;;;;;;1.63;1.08;;;25.90;99.90;;;;;;5052935;28;20068;-77
2022/06/25 10:54:06;;;;;;;3.58;1.15;;;25.50;99.90;;;;;;5052935;28;20041;-73
2022/06/25 10:56:44;;;;;;;5.68;1.10;;;25.30;99.90;;;;;;5069682;28;20138;-82
2022/06/25 10:59:14;;;;;;;5.20;0.82;;;25.30;99.90;;;;;;5069988;28;20056;-77
2022/06/25 11:01:39;;;;;;;1.85;0.80;;;25.40;99.90;;;;;;5052732;28;20055;-77
2022/06/25 11:04:07;;;;;;;1.80;0.88;;;25.80;99.90;;;;;;5068714;28;20037;-77
2022/06/25 11:06:38;;;;;;;3.00;1.00;;;26.10;99.90;;;;;;5052599;28;20045;-77
2022/06/25 11:09:15;;;;;;;3.58;1.17;;;26.10;99.90;;;;;;5053204;28;20135;-77
2022/06/25 11:11:45;;;;;;;2.42;0.90;;;26.30;99.90;;;;;;5053791;28;20049;-77
2022/06/25 11:14:22;;;;;;;4.45;1.60;;;26.70;99.90;;;;;;5069195;28;20434;-77
2022/06/25 11:16:49;;;;;;;1.65;1.08;;;26.30;99.90;;;;;;5069521;28;20369;-77
2022/06/25 11:19:15;;;;;;;12.35;1.63;;;26.30;99.90;;;;;;5052864;28;20044;-77
2022/06/25 11:21:43;;;;;;;2.42;1.00;;;26.80;99.90;;;;;;5052759;28;20067;-77
2022/06/25 11:24:26;;;;;;;4.38;1.25;;;27.00;99.90;;;;;;5052795;28;20053;-77
2022/06/25 11:29:51;;;;;;;2.85;1.10;;;26.60;99.90;;;;;;5069592;28;20064;-77
2022/06/25 11:32:25;;;;;;;3.10;1.00;;;26.00;99.90;;;;;;5069380;28;20053;-77
2022/06/25 11:34:53;;;;;;;3.97;1.05;;;25.90;99.90;;;;;;5051782;28;20618;-77
2022/06/25 11:37:20;;;;;;;4.07;1.10;;;26.10;99.90;;;;;;5052529;28;20049;-77
2022/06/25 11:39:47;;;;;;;1.80;0.65;;;26.10;99.90;;;;;;5069160;28;20044;-77
2022/06/25 11:42:13;;;;;;;2.38;0.98;;;26.20;99.90;;;;;;5052549;28;20056;-77
2022/06/25 11:44:49;;;;;;;1.67;0.88;;;26.20;99.90;;;;;;5052415;28;20052;-77
2022/06/25 11:47:19;;;;;;;2.97;1.05;;;26.10;99.90;;;;;;5052414;28;20059;-77
2022/06/25 11:49:46;;;;;;;2.67;0.82;;;26.20;99.90;;;;;;5052180;28;20052;-77
2022/06/25 11:52:13;;;;;;;3.22;1.00;;;26.50;99.90;;;;;;5052496;28;20053;-77
2022/06/25 11:54:40;;;;;;;2.83;1.00;;;26.70;99.90;;;;;;5068585;28;20052;-77
2022/06/25 11:57:08;;;;;;;3.42;1.10;;;26.90;99.90;;;;;;5068850;28;20041;-77
2022/06/25 11:59:36;;;;;;;3.20;0.70;;;27.00;99.90;;;;;;5068943;28;20087;-77
2022/06/25 12:02:04;;;;;;;5.80;1.08;;;27.00;99.90;;;;;;5068944;28;20061;-77
2022/06/25 12:04:55;;;;;;;4.85;1.20;;;26.80;99.90;;;;;;5034990;28;20048;-77
2022/06/25 12:07:21;;;;;;;3.42;1.10;;;26.50;99.90;;;;;;5052366;28;20088;-77
2022/06/25 12:09:49;;;;;;;2.15;1.05;;;26.30;99.90;;;;;;5069173;28;20391;-77
2022/06/25 12:12:17;;;;;;;2.83;1.10;;;25.90;99.90;;;;;;5051999;28;20056;-77
2022/06/25 12:14:43;;;;;;;3.60;1.05;;;25.80;99.90;;;;;;5053767;28;20084;-74
2022/06/25 12:17:11;;;;;;;1.38;0.90;;;25.70;99.90;;;;;;5072907;28;20049;-74
2022/06/25 12:19:49;;;;;;;3.55;0.98;;;25.60;99.90;;;;;;5056058;28;20041;-74
2022/06/25 12:22:28;;;;;;;1.98;0.93;;;25.60;99.90;;;;;;5072941;28;20171;-75
2022/06/25 12:24:58;;;;;;;4.75;0.90;;;25.70;99.90;;;;;;5056709;28;20106;-74
2022/06/25 12:27:27;;;;;;;4.50;1.15;;;25.70;99.90;;;;;;5055754;28;20053;-75
2022/06/25 12:29:55;;;;;;;4.18;0.88;;;25.70;99.90;;;;;;5072575;28;20537;-74
2022/06/25 12:32:38;;;;;;;2.65;0.98;;;25.50;99.90;;;;;;5072831;28;20049;-74
2022/06/25 12:35:14;;;;;;;3.45;1.00;;;25.30;99.90;;;;;;5071508;28;20057;-74
2022/06/25 12:37:40;;;;;;;4.47;1.10;;;25.00;99.90;;;;;;5055537;28;20144;-74
2022/06/25 12:40:06;;;;;;;4.30;1.50;;;24.90;99.90;;;;;;5055523;28;20049;-74
2022/06/25 12:42:33;;;;;;;2.95;1.50;;;24.40;99.90;;;;;;5055424;28;20041;-74
2022/06/25 12:44:59;;;;;;;1.52;1.30;;;23.90;99.90;;;;;;5055560;28;20523;-74
2022/06/25 12:47:38;;;;;;;6.32;2.25;;;23.70;99.90;;;;;;5055740;28;20049;-74
2022/06/25 12:50:06;;;;;;;4.15;1.45;;;23.70;99.90;;;;;;5072082;28;20045;-74
2022/06/25 12:52:36;;;;;;;2.97;1.63;;;23.60;99.90;;;;;;5055421;28;20490;-74
2022/06/25 12:55:03;;;;;;;6.80;1.70;;;23.60;99.90;;;;;;5055695;28;20049;-74
2022/06/25 12:57:36;;;;;;;2.25;1.38;;;23.60;99.90;;;;;;5072145;28;20065;-74
2022/06/25 13:00:06;;;;;;;5.13;2.15;;;23.80;99.90;;;;;;5055118;28;20480;-74